الصفحة الرئيسية
METAR-TAF:

METAR-TAF

مطار :

مطار إيسنبوغا الدولي

أنقرة Esenboğa, تركيا

دائرة عرض: 40-07N, خط طول: 032-59E, ارتفاع: 953 متر

مراقبة الطقس الحالي

تاريخ ووقت الإصدار 20 دقيقة قبل الساعة 00:50UTC
ريح 6 عقدة من الشمال
درجة الحرارة 19°درجة مئوية
الرطوبة 43%
ضغط 1013 hPa
الرؤية 10 كم أو أكثر
الغيوم لا تقل 1500 م ولا وجود لمزنة ركامية السحاب الأسود

METAR: LTAC 170050Z 01006KT CAVOK 19/06 Q1013 NOSIG RMK RWY21L 01008KT RWY03L 36008KT RWY21R 02008KT

زمن: 04:10 (01:10 UTC)

توقعات

تاريخ ووقت الإصدار 2ساعات و 30 دقيقة قبل الساعة 22:40UTC
التوقعات صالحة من17 الساعة 00 UTC إلى 17 الساعة 24 UTC
ريح 2 عقدةمن اتجاهات متغيرة
الرؤية 10 كم أو أكثر
الغيوم لا تقل 1500 م ولا وجود لمزنة ركامية السحاب الأسود
أصبح
من 17 الساعة 06 UTC إلى 17 الساعة 09 UTC
غيوم متفرقة على ارتفاع 4000 قدم
مؤقت
من 17 الساعة 14 UTC إلى 17 الساعة 17 UTC
ريح 12 عقدة من الشمال الشرقي
أصبح
من 17 الساعة 16 UTC إلى 17 الساعة 18 UTC
الرؤية 10 كم أو أكثر
الغيوم لا تقل 1500 م ولا وجود لمزنة ركامية السحاب الأسود

TAF: LTAC 162240Z 1700/1724 VRB02KT CAVOK BECMG 1706/1709 SCT040 TEMPO 1714/1717 04012KT BECMG 1716/1718 CAVOK

أرصاد الطقس والتوقعات من أكثر من 4000 مطار (تقارير الطقس للمطار METAR والتنبؤ بالطقس بالمطارTAF).

المحطات المتاحة هي النقط الصفراء والحمراء على الخريطة.

حرك المؤشر فوق النقطة لمعرفة اسم المحطة.

ثم انقر لمعرفة أرصاد وتوقعات الطقس.

لتغيير الخارطة: اضغط على الأزرار الخضراء مع رمز الصليب الأسود للتكبير. على الزر الأخضر مع شرطة للتصغير، أو على الأسهم الخضراء للخرائط المجاورة.


METAR-TAF: